N7243P KMKL-K3M0
Flight info
| Callsign | N7243P |
|---|---|
| Flight time | N/A |
| Altitude | 6000 |
| Route | ARG V140 INNAM |
| Aircraft | PA24/L-SDGRY/S |
Departure
| Time | 2026-04-26 15:09 |
|---|---|
| Airport | McKellar-Sipes Regional Airport (KMKL) |
Arrival
| Time | N/A |
|---|---|
| Airport | K3M0 |
| Time | Latitude | Longitude | Altitude | Speed | Heading |
|---|---|---|---|---|---|
| 2026-04-26 15:05 | 35.60276 | -88.92091 | 429 ft | 0 kts | 181° |
| 2026-04-26 15:06 | 35.60267 | -88.92080 | 425 ft | 6 kts | 85° |
| 2026-04-26 15:06 | 35.60296 | -88.92047 | 428 ft | 10 kts | 351° |
| 2026-04-26 15:06 | 35.60374 | -88.92043 | 430 ft | 10 kts | 9° |
| 2026-04-26 15:07 | 35.60395 | -88.92036 | 430 ft | 0 kts | 24° |
| 2026-04-26 15:08 | 35.60405 | -88.92032 | 430 ft | 5 kts | 19° |
| 2026-04-26 15:08 | 35.60448 | -88.91994 | 428 ft | 9 kts | 92° |
| 2026-04-26 15:08 | 35.60363 | -88.91728 | 421 ft | 63 kts | 112° |
| 2026-04-26 15:09 | 35.60149 | -88.91124 | 486 ft | 87 kts | 115° |
| 2026-04-26 15:09 | 35.60076 | -88.90509 | 755 ft | 83 kts | 64° |
| 2026-04-26 15:09 | 35.60616 | -88.90205 | 937 ft | 97 kts | 350° |
| 2026-04-26 15:09 | 35.61080 | -88.90766 | 1248 ft | 89 kts | 298° |
| 2026-04-26 15:10 | 35.61379 | -88.91439 | 1519 ft | 96 kts | 291° |
| 2026-04-26 15:10 | 35.61573 | -88.91919 | 1734 ft | 91 kts | 288° |
| 2026-04-26 15:10 | 35.61935 | -88.92865 | 2047 ft | 91 kts | 284° |
| 2026-04-26 15:10 | 35.62125 | -88.93573 | 2284 ft | 89 kts | 278° |
| 2026-04-26 15:11 | 35.62303 | -88.94309 | 2523 ft | 86 kts | 278° |
| 2026-04-26 15:11 | 35.62481 | -88.95053 | 2706 ft | 97 kts | 280° |
| 2026-04-26 15:11 | 35.62684 | -88.95856 | 2925 ft | 99 kts | 279° |
| 2026-04-26 15:11 | 35.62874 | -88.96672 | 3134 ft | 100 kts | 276° |
| 2026-04-26 15:12 | 35.63015 | -88.97503 | 3366 ft | 99 kts | 272° |
| 2026-04-26 15:12 | 35.63132 | -88.98345 | 3627 ft | 100 kts | 271° |
| 2026-04-26 15:12 | 35.63211 | -88.99183 | 3843 ft | 97 kts | 268° |
| 2026-04-26 15:12 | 35.63270 | -89.00013 | 4081 ft | 98 kts | 269° |
| 2026-04-26 15:13 | 35.63337 | -89.00847 | 4287 ft | 98 kts | 269° |
| 2026-04-26 15:13 | 35.63404 | -89.01684 | 4479 ft | 99 kts | 267° |
| 2026-04-26 15:13 | 35.63446 | -89.02525 | 4679 ft | 98 kts | 265° |
| 2026-04-26 15:13 | 35.63459 | -89.03367 | 4913 ft | 98 kts | 264° |
| 2026-04-26 15:14 | 35.63555 | -89.04204 | 5099 ft | 100 kts | 277° |
| 2026-04-26 15:14 | 35.63734 | -89.05028 | 5299 ft | 99 kts | 273° |
| 2026-04-26 15:14 | 35.63782 | -89.05874 | 5497 ft | 99 kts | 265° |
| 2026-04-26 15:14 | 35.63786 | -89.06705 | 5693 ft | 97 kts | 264° |
| 2026-04-26 15:15 | 35.63812 | -89.07525 | 5874 ft | 97 kts | 268° |
| 2026-04-26 15:15 | 35.63883 | -89.08347 | 6063 ft | 97 kts | 274° |
| 2026-04-26 15:15 | 35.64024 | -89.09168 | 6267 ft | 99 kts | 281° |
| 2026-04-26 15:15 | 35.64242 | -89.09973 | 6463 ft | 101 kts | 287° |
| 2026-04-26 15:16 | 35.64558 | -89.10800 | 6497 ft | 116 kts | 295° |
| 2026-04-26 15:16 | 35.65020 | -89.11689 | 6508 ft | 130 kts | 301° |
| 2026-04-26 15:16 | 35.65570 | -89.12646 | 6495 ft | 143 kts | 302° |
| 2026-04-26 15:16 | 35.65955 | -89.13346 | 6498 ft | 149 kts | 299° |
| 2026-04-26 15:17 | 35.66483 | -89.14482 | 6480 ft | 155 kts | 292° |
| 2026-04-26 15:17 | 35.66767 | -89.15285 | 6494 ft | 155 kts | 287° |
| 2026-04-26 15:17 | 35.67132 | -89.17015 | 6497 ft | 158 kts | 277° |
| 2026-04-26 15:17 | 35.67266 | -89.18368 | 6495 ft | 160 kts | 273° |
| 2026-04-26 15:18 | 35.67354 | -89.19736 | 6494 ft | 160 kts | 272° |
| 2026-04-26 15:18 | 35.67468 | -89.21104 | 6494 ft | 161 kts | 275° |
| 2026-04-26 15:18 | 35.67666 | -89.22457 | 6493 ft | 161 kts | 279° |
| 2026-04-26 15:18 | 35.67953 | -89.23792 | 6501 ft | 162 kts | 285° |
| 2026-04-26 15:19 | 35.68340 | -89.25079 | 6495 ft | 164 kts | 289° |
| 2026-04-26 15:19 | 35.68798 | -89.26367 | 6495 ft | 165 kts | 292° |
| 2026-04-26 15:19 | 35.69292 | -89.27639 | 6495 ft | 165 kts | 292° |
| 2026-04-26 15:19 | 35.69768 | -89.28942 | 6496 ft | 165 kts | 290° |
| 2026-04-26 15:20 | 35.70167 | -89.30245 | 6496 ft | 165 kts | 287° |
| 2026-04-26 15:20 | 35.70510 | -89.31588 | 6495 ft | 164 kts | 284° |
| 2026-04-26 15:20 | 35.70808 | -89.32940 | 6494 ft | 163 kts | 282° |
| 2026-04-26 15:20 | 35.71083 | -89.34295 | 6494 ft | 163 kts | 281° |
| 2026-04-26 15:21 | 35.71366 | -89.35639 | 6492 ft | 162 kts | 282° |
| 2026-04-26 15:21 | 35.71659 | -89.36974 | 6494 ft | 162 kts | 282° |
| 2026-04-26 15:21 | 35.71965 | -89.38306 | 6495 ft | 162 kts | 283° |
| 2026-04-26 15:21 | 35.72295 | -89.39628 | 6495 ft | 162 kts | 284° |
| 2026-04-26 15:22 | 35.72655 | -89.40938 | 6497 ft | 162 kts | 285° |
| 2026-04-26 15:22 | 35.73024 | -89.42254 | 6495 ft | 163 kts | 286° |
| 2026-04-26 15:22 | 35.73385 | -89.43580 | 6496 ft | 163 kts | 285° |
| 2026-04-26 15:22 | 35.73738 | -89.44910 | 6495 ft | 164 kts | 285° |
| 2026-04-26 15:23 | 35.74101 | -89.46239 | 6497 ft | 164 kts | 285° |
| 2026-04-26 15:23 | 35.74460 | -89.47579 | 6495 ft | 165 kts | 284° |
| 2026-04-26 15:23 | 35.74803 | -89.48922 | 6495 ft | 164 kts | 283° |
| 2026-04-26 15:23 | 35.75124 | -89.50269 | 6494 ft | 164 kts | 283° |
| 2026-04-26 15:24 | 35.75437 | -89.51618 | 6499 ft | 164 kts | 283° |
| 2026-04-26 15:24 | 35.75771 | -89.52961 | 6499 ft | 164 kts | 283° |
| 2026-04-26 15:24 | 35.76113 | -89.54297 | 6480 ft | 164 kts | 283° |
| 2026-04-26 15:24 | 35.76448 | -89.55655 | 6481 ft | 167 kts | 284° |
| 2026-04-26 15:25 | 35.76787 | -89.57037 | 6481 ft | 169 kts | 284° |
| 2026-04-26 15:25 | 35.77012 | -89.57948 | 6481 ft | 167 kts | 284° |
| 2026-04-26 15:25 | 35.77481 | -89.59759 | 6480 ft | 165 kts | 284° |
| 2026-04-26 15:25 | 35.77840 | -89.61093 | 6479 ft | 164 kts | 285° |
| 2026-04-26 15:26 | 35.78196 | -89.62430 | 6482 ft | 165 kts | 285° |
| 2026-04-26 15:26 | 35.78551 | -89.63770 | 6481 ft | 164 kts | 284° |
| 2026-04-26 15:26 | 35.78887 | -89.65113 | 6481 ft | 163 kts | 284° |
| 2026-04-26 15:26 | 35.79212 | -89.66452 | 6481 ft | 163 kts | 284° |
| 2026-04-26 15:27 | 35.79530 | -89.67776 | 6479 ft | 164 kts | 284° |
| 2026-04-26 15:27 | 35.79859 | -89.69121 | 6479 ft | 164 kts | 284° |
| 2026-04-26 15:27 | 35.80198 | -89.70479 | 6462 ft | 164 kts | 284° |
| 2026-04-26 15:27 | 35.80543 | -89.71814 | 6462 ft | 163 kts | 285° |
| 2026-04-26 15:28 | 35.80895 | -89.73145 | 6459 ft | 163 kts | 285° |
| 2026-04-26 15:28 | 35.81249 | -89.74472 | 6459 ft | 163 kts | 284° |
| 2026-04-26 15:28 | 35.81597 | -89.75801 | 6459 ft | 163 kts | 284° |
| 2026-04-26 15:28 | 35.81928 | -89.77124 | 6462 ft | 165 kts | 283° |
| 2026-04-26 15:29 | 35.82262 | -89.78501 | 6463 ft | 165 kts | 283° |
| 2026-04-26 15:29 | 35.82578 | -89.79832 | 6462 ft | 163 kts | 283° |
| 2026-04-26 15:29 | 35.83243 | -89.82524 | 6462 ft | 164 kts | 283° |
| 2026-04-26 15:30 | 35.83923 | -89.85196 | 6462 ft | 163 kts | 283° |
| 2026-04-26 15:30 | 35.84263 | -89.86541 | 6463 ft | 167 kts | 284° |
| 2026-04-26 15:30 | 35.84595 | -89.87910 | 6464 ft | 168 kts | 283° |
| 2026-04-26 15:31 | 35.84940 | -89.89283 | 6464 ft | 167 kts | 284° |
| 2026-04-26 15:31 | 35.85620 | -89.92017 | 6461 ft | 167 kts | 283° |
| 2026-04-26 15:31 | 35.85954 | -89.93393 | 6482 ft | 168 kts | 283° |
| 2026-04-26 15:32 | 35.86535 | -89.95660 | 6480 ft | 166 kts | 284° |
| 2026-04-26 15:32 | 35.87016 | -89.97458 | 6477 ft | 164 kts | 284° |
| 2026-04-26 15:32 | 35.87352 | -89.98804 | 6483 ft | 165 kts | 284° |
| 2026-04-26 15:33 | 35.87687 | -90.00167 | 6459 ft | 168 kts | 283° |
| 2026-04-26 15:33 | 35.88037 | -90.01542 | 6461 ft | 168 kts | 283° |
| 2026-04-26 15:33 | 35.88387 | -90.02919 | 6462 ft | 169 kts | 283° |
| 2026-04-26 15:33 | 35.88726 | -90.04312 | 6462 ft | 171 kts | 283° |
| 2026-04-26 15:34 | 35.89058 | -90.05705 | 6459 ft | 168 kts | 283° |
| 2026-04-26 15:34 | 35.89386 | -90.07081 | 6458 ft | 167 kts | 283° |
| 2026-04-26 15:34 | 35.89724 | -90.08446 | 6458 ft | 166 kts | 284° |
| 2026-04-26 15:34 | 35.90073 | -90.09802 | 6459 ft | 166 kts | 284° |
| 2026-04-26 15:35 | 35.90420 | -90.11157 | 6460 ft | 166 kts | 283° |
| 2026-04-26 15:35 | 35.90756 | -90.12514 | 6460 ft | 165 kts | 283° |
| 2026-04-26 15:35 | 35.91089 | -90.13869 | 6459 ft | 165 kts | 283° |
| 2026-04-26 15:35 | 35.91427 | -90.15223 | 6459 ft | 166 kts | 283° |
| 2026-04-26 15:36 | 35.91770 | -90.16581 | 6460 ft | 166 kts | 283° |
| 2026-04-26 15:36 | 35.92110 | -90.17944 | 6461 ft | 167 kts | 283° |
| 2026-04-26 15:36 | 35.92448 | -90.19321 | 6460 ft | 168 kts | 283° |
| 2026-04-26 15:36 | 35.92782 | -90.20707 | 6460 ft | 169 kts | 282° |
| 2026-04-26 15:37 | 35.93102 | -90.22077 | 6457 ft | 168 kts | 282° |
| 2026-04-26 15:37 | 35.93436 | -90.23457 | 6456 ft | 168 kts | 283° |
| 2026-04-26 15:37 | 35.93779 | -90.24840 | 6456 ft | 169 kts | 283° |
| 2026-04-26 15:37 | 35.94123 | -90.26220 | 6456 ft | 168 kts | 284° |
| 2026-04-26 15:38 | 35.94473 | -90.27590 | 6458 ft | 167 kts | 284° |
| 2026-04-26 15:38 | 35.94817 | -90.28973 | 6458 ft | 169 kts | 284° |
| 2026-04-26 15:38 | 35.95170 | -90.30347 | 6458 ft | 168 kts | 284° |
| 2026-04-26 15:38 | 35.95529 | -90.31713 | 6458 ft | 167 kts | 284° |
| 2026-04-26 15:39 | 35.95875 | -90.33088 | 6457 ft | 169 kts | 283° |
| 2026-04-26 15:39 | 35.96210 | -90.34476 | 6458 ft | 169 kts | 283° |
| 2026-04-26 15:39 | 35.96531 | -90.35868 | 6457 ft | 168 kts | 283° |
| 2026-04-26 15:39 | 35.96746 | -90.36783 | 6457 ft | 168 kts | 283° |
| 2026-04-26 15:40 | 35.97182 | -90.38630 | 6462 ft | 167 kts | 283° |
| 2026-04-26 15:40 | 35.97501 | -90.40006 | 6457 ft | 167 kts | 283° |
| 2026-04-26 15:40 | 35.97830 | -90.41380 | 6457 ft | 167 kts | 284° |
| 2026-04-26 15:40 | 35.98178 | -90.42748 | 6445 ft | 167 kts | 284° |
| 2026-04-26 15:41 | 35.98538 | -90.44112 | 6446 ft | 167 kts | 285° |
| 2026-04-26 15:41 | 35.98896 | -90.45475 | 6451 ft | 166 kts | 285° |
| 2026-04-26 15:41 | 35.99250 | -90.46830 | 6454 ft | 166 kts | 285° |
| 2026-04-26 15:41 | 35.99602 | -90.48185 | 6462 ft | 167 kts | 284° |
| 2026-04-26 15:42 | 35.99943 | -90.49563 | 6461 ft | 169 kts | 284° |
| 2026-04-26 15:42 | 36.00274 | -90.50955 | 6462 ft | 169 kts | 283° |
| 2026-04-26 15:42 | 36.00590 | -90.52355 | 6457 ft | 169 kts | 283° |
| 2026-04-26 15:42 | 36.00906 | -90.53749 | 6459 ft | 169 kts | 282° |
| 2026-04-26 15:43 | 36.01221 | -90.55130 | 6463 ft | 169 kts | 283° |
| 2026-04-26 15:43 | 36.01562 | -90.56520 | 6459 ft | 169 kts | 284° |
| 2026-04-26 15:43 | 36.02270 | -90.59291 | 6456 ft | 167 kts | 285° |
| 2026-04-26 15:44 | 36.02625 | -90.60666 | 6452 ft | 169 kts | 284° |
| 2026-04-26 15:44 | 36.03311 | -90.63405 | 6455 ft | 168 kts | 284° |
| 2026-04-26 15:44 | 36.03643 | -90.64783 | 6463 ft | 168 kts | 283° |
| 2026-04-26 15:45 | 36.04302 | -90.67536 | 6458 ft | 166 kts | 283° |
| 2026-04-26 15:45 | 36.04628 | -90.68909 | 6453 ft | 167 kts | 283° |
| 2026-04-26 15:46 | 36.05288 | -90.71650 | 6466 ft | 168 kts | 283° |
| 2026-04-26 15:46 | 36.05613 | -90.73040 | 6465 ft | 168 kts | 283° |
| 2026-04-26 15:46 | 36.05939 | -90.74415 | 6464 ft | 166 kts | 283° |
| 2026-04-26 15:46 | 36.06163 | -90.75341 | 6460 ft | 167 kts | 284° |
| 2026-04-26 15:47 | 36.06596 | -90.77171 | 6459 ft | 167 kts | 283° |
| 2026-04-26 15:47 | 36.07254 | -90.79941 | 6462 ft | 169 kts | 285° |
| 2026-04-26 15:47 | 36.07599 | -90.81331 | 6464 ft | 169 kts | 285° |
| 2026-04-26 15:48 | 36.07956 | -90.82714 | 6463 ft | 169 kts | 285° |
| 2026-04-26 15:48 | 36.08313 | -90.84099 | 6457 ft | 168 kts | 284° |
| 2026-04-26 15:48 | 36.08657 | -90.85478 | 6459 ft | 167 kts | 284° |
| 2026-04-26 15:48 | 36.08992 | -90.86857 | 6456 ft | 168 kts | 283° |
| 2026-04-26 15:49 | 36.09313 | -90.88235 | 6457 ft | 166 kts | 283° |
| 2026-04-26 15:49 | 36.09628 | -90.89605 | 6455 ft | 166 kts | 283° |
| 2026-04-26 15:49 | 36.09946 | -90.90968 | 6461 ft | 164 kts | 284° |
| 2026-04-26 15:49 | 36.10270 | -90.92328 | 6461 ft | 166 kts | 284° |
| 2026-04-26 15:50 | 36.10609 | -90.93691 | 6466 ft | 167 kts | 284° |
| 2026-04-26 15:50 | 36.10947 | -90.95069 | 6469 ft | 167 kts | 284° |
| 2026-04-26 15:50 | 36.11278 | -90.96448 | 6465 ft | 167 kts | 283° |
| 2026-04-26 15:50 | 36.11546 | -90.97850 | 6470 ft | 168 kts | 278° |
| 2026-04-26 15:51 | 36.11718 | -90.99278 | 6470 ft | 168 kts | 273° |
| 2026-04-26 15:51 | 36.11802 | -91.00718 | 6464 ft | 168 kts | 269° |
| 2026-04-26 15:51 | 36.11832 | -91.02157 | 6464 ft | 167 kts | 268° |
| 2026-04-26 15:51 | 36.11861 | -91.03595 | 6461 ft | 168 kts | 269° |
| 2026-04-26 15:52 | 36.11908 | -91.05033 | 6462 ft | 167 kts | 270° |
| 2026-04-26 15:52 | 36.11989 | -91.06465 | 6459 ft | 167 kts | 272° |
| 2026-04-26 15:52 | 36.12116 | -91.07885 | 6460 ft | 166 kts | 275° |
| 2026-04-26 15:52 | 36.12226 | -91.08822 | 6460 ft | 166 kts | 276° |
| 2026-04-26 15:53 | 36.12490 | -91.10712 | 6458 ft | 166 kts | 277° |
| 2026-04-26 15:53 | 36.12698 | -91.12120 | 6461 ft | 167 kts | 277° |
| 2026-04-26 15:53 | 36.12897 | -91.13535 | 6460 ft | 167 kts | 276° |
| 2026-04-26 15:53 | 36.13074 | -91.14947 | 6467 ft | 166 kts | 275° |
| 2026-04-26 15:54 | 36.13225 | -91.16359 | 6466 ft | 165 kts | 274° |
| 2026-04-26 15:54 | 36.13354 | -91.17769 | 6467 ft | 165 kts | 272° |
| 2026-04-26 15:54 | 36.13463 | -91.19180 | 6464 ft | 164 kts | 272° |
| 2026-04-26 15:54 | 36.13564 | -91.20585 | 6466 ft | 164 kts | 272° |
| 2026-04-26 15:55 | 36.13666 | -91.21995 | 6465 ft | 164 kts | 272° |
| 2026-04-26 15:55 | 36.13782 | -91.23402 | 6462 ft | 165 kts | 273° |
| 2026-04-26 15:55 | 36.13913 | -91.24806 | 6465 ft | 165 kts | 274° |
| 2026-04-26 15:55 | 36.14060 | -91.26218 | 6463 ft | 165 kts | 275° |
| 2026-04-26 15:56 | 36.14219 | -91.27624 | 6468 ft | 165 kts | 275° |
| 2026-04-26 15:56 | 36.14382 | -91.29032 | 6468 ft | 165 kts | 275° |
| 2026-04-26 15:56 | 36.14542 | -91.30441 | 6468 ft | 165 kts | 275° |
| 2026-04-26 15:56 | 36.14694 | -91.31830 | 6466 ft | 165 kts | 274° |
| 2026-04-26 15:57 | 36.14836 | -91.33250 | 6466 ft | 165 kts | 274° |
| 2026-04-26 15:57 | 36.14969 | -91.34644 | 6466 ft | 165 kts | 274° |
| 2026-04-26 15:57 | 36.15098 | -91.36069 | 6466 ft | 165 kts | 274° |
| 2026-04-26 15:57 | 36.15181 | -91.37001 | 6465 ft | 165 kts | 274° |
| 2026-04-26 15:58 | 36.15353 | -91.38885 | 6460 ft | 165 kts | 274° |
| 2026-04-26 15:58 | 36.15484 | -91.40274 | 6460 ft | 165 kts | 274° |
| 2026-04-26 15:58 | 36.15623 | -91.41679 | 6460 ft | 164 kts | 274° |
| 2026-04-26 15:58 | 36.15765 | -91.43079 | 6459 ft | 165 kts | 274° |
| 2026-04-26 15:59 | 36.15913 | -91.44484 | 6460 ft | 164 kts | 274° |
| 2026-04-26 15:59 | 36.16060 | -91.45882 | 6458 ft | 164 kts | 274° |
| 2026-04-26 15:59 | 36.16156 | -91.46830 | 6460 ft | 164 kts | 274° |
| 2026-04-26 15:59 | 36.16335 | -91.48690 | 6460 ft | 164 kts | 273° |
| 2026-04-26 16:00 | 36.16460 | -91.50093 | 6461 ft | 164 kts | 273° |
| 2026-04-26 16:00 | 36.16589 | -91.51501 | 6461 ft | 165 kts | 274° |
| 2026-04-26 16:00 | 36.16677 | -91.52452 | 6462 ft | 165 kts | 274° |
| 2026-04-26 16:00 | 36.16814 | -91.53839 | 6466 ft | 159 kts | 274° |
| 2026-04-26 16:01 | 36.16967 | -91.55187 | 6466 ft | 158 kts | 274° |
| 2026-04-26 16:01 | 36.17113 | -91.56517 | 6464 ft | 158 kts | 273° |
| 2026-04-26 16:01 | 36.17248 | -91.57881 | 6465 ft | 158 kts | 272° |
| 2026-04-26 16:01 | 36.17365 | -91.59220 | 6461 ft | 158 kts | 272° |
| 2026-04-26 16:02 | 36.17477 | -91.60567 | 6461 ft | 157 kts | 272° |
| 2026-04-26 16:02 | 36.17593 | -91.61914 | 6458 ft | 158 kts | 272° |
| 2026-04-26 16:02 | 36.17711 | -91.63262 | 6458 ft | 157 kts | 272° |
| 2026-04-26 16:02 | 36.17793 | -91.64169 | 6459 ft | 157 kts | 272° |
| 2026-04-26 16:03 | 36.17965 | -91.65941 | 6462 ft | 157 kts | 273° |
| 2026-04-26 16:03 | 36.18098 | -91.67278 | 6462 ft | 157 kts | 273° |
| 2026-04-26 16:03 | 36.18229 | -91.68621 | 6456 ft | 157 kts | 273° |
| 2026-04-26 16:03 | 36.18362 | -91.69967 | 6457 ft | 158 kts | 273° |
| 2026-04-26 16:04 | 36.18498 | -91.71325 | 6457 ft | 160 kts | 273° |
| 2026-04-26 16:04 | 36.18722 | -91.72670 | 6456 ft | 159 kts | 283° |
| 2026-04-26 16:04 | 36.19086 | -91.73973 | 6453 ft | 160 kts | 285° |
| 2026-04-26 16:04 | 36.19545 | -91.75226 | 6447 ft | 161 kts | 296° |
| 2026-04-26 16:05 | 36.19949 | -91.76516 | 6452 ft | 160 kts | 281° |
| 2026-04-26 16:05 | 36.20256 | -91.77814 | 6459 ft | 159 kts | 283° |
| 2026-04-26 16:05 | 36.20584 | -91.79120 | 6458 ft | 159 kts | 283° |
| 2026-04-26 16:05 | 36.20914 | -91.80426 | 6459 ft | 159 kts | 283° |
| 2026-04-26 16:06 | 36.21109 | -91.81770 | 6458 ft | 160 kts | 267° |
| 2026-04-26 16:06 | 36.20933 | -91.83104 | 6461 ft | 156 kts | 249° |
| 2026-04-26 16:06 | 36.20472 | -91.84312 | 6453 ft | 155 kts | 238° |
| 2026-04-26 16:06 | 36.20018 | -91.85510 | 6441 ft | 154 kts | 254° |
| 2026-04-26 16:07 | 36.19981 | -91.86828 | 6451 ft | 154 kts | 269° |
| 2026-04-26 16:07 | 36.20012 | -91.88158 | 6449 ft | 155 kts | 268° |
| 2026-04-26 16:07 | 36.20040 | -91.89499 | 6451 ft | 157 kts | 269° |
| 2026-04-26 16:07 | 36.20118 | -91.90848 | 6455 ft | 156 kts | 271° |
| 2026-04-26 16:08 | 36.20255 | -91.92185 | 6456 ft | 157 kts | 275° |
| 2026-04-26 16:08 | 36.20446 | -91.93517 | 6452 ft | 157 kts | 276° |
| 2026-04-26 16:08 | 36.20655 | -91.94849 | 6450 ft | 158 kts | 277° |
| 2026-04-26 16:08 | 36.20857 | -91.96195 | 6451 ft | 159 kts | 276° |
| 2026-04-26 16:09 | 36.21030 | -91.97545 | 6452 ft | 159 kts | 275° |
| 2026-04-26 16:09 | 36.21164 | -91.98900 | 6443 ft | 158 kts | 272° |
| 2026-04-26 16:09 | 36.21262 | -92.00251 | 6444 ft | 157 kts | 271° |
| 2026-04-26 16:09 | 36.21342 | -92.01609 | 6444 ft | 159 kts | 271° |
| 2026-04-26 16:10 | 36.21436 | -92.02974 | 6443 ft | 159 kts | 272° |
| 2026-04-26 16:10 | 36.21568 | -92.04331 | 6443 ft | 158 kts | 274° |
| 2026-04-26 16:10 | 36.21716 | -92.05684 | 6443 ft | 159 kts | 274° |
| 2026-04-26 16:10 | 36.21851 | -92.07047 | 6444 ft | 159 kts | 273° |
| 2026-04-26 16:11 | 36.21981 | -92.08402 | 6449 ft | 159 kts | 273° |
| 2026-04-26 16:11 | 36.22111 | -92.09759 | 6448 ft | 158 kts | 272° |
| 2026-04-26 16:11 | 36.22230 | -92.11104 | 6448 ft | 157 kts | 272° |
| 2026-04-26 16:11 | 36.22347 | -92.12444 | 6449 ft | 157 kts | 272° |
| 2026-04-26 16:12 | 36.22466 | -92.13774 | 6449 ft | 158 kts | 272° |
| 2026-04-26 16:12 | 36.22592 | -92.15124 | 6452 ft | 158 kts | 272° |
| 2026-04-26 16:12 | 36.22841 | -92.17823 | 6451 ft | 158 kts | 272° |
| 2026-04-26 16:13 | 36.22961 | -92.19183 | 6454 ft | 159 kts | 272° |
| 2026-04-26 16:13 | 36.23084 | -92.20549 | 6454 ft | 160 kts | 273° |
| 2026-04-26 16:13 | 36.23230 | -92.21913 | 6438 ft | 158 kts | 274° |
| 2026-04-26 16:13 | 36.23375 | -92.23276 | 6275 ft | 162 kts | 273° |
| 2026-04-26 16:14 | 36.23504 | -92.24677 | 6137 ft | 163 kts | 272° |
| 2026-04-26 16:14 | 36.23623 | -92.26057 | 6054 ft | 160 kts | 271° |
| 2026-04-26 16:14 | 36.23841 | -92.28827 | 5773 ft | 161 kts | 271° |
| 2026-04-26 16:15 | 36.23956 | -92.30203 | 5664 ft | 160 kts | 271° |
| 2026-04-26 16:15 | 36.24071 | -92.31574 | 5530 ft | 160 kts | 271° |
| 2026-04-26 16:15 | 36.24199 | -92.32965 | 5319 ft | 164 kts | 272° |
| 2026-04-26 16:16 | 36.24460 | -92.35723 | 4924 ft | 157 kts | 271° |
| 2026-04-26 16:16 | 36.24573 | -92.37061 | 4697 ft | 156 kts | 269° |
| 2026-04-26 16:16 | 36.24670 | -92.38402 | 4415 ft | 156 kts | 270° |
| 2026-04-26 16:16 | 36.24786 | -92.39733 | 4134 ft | 155 kts | 270° |
| 2026-04-26 16:17 | 36.24904 | -92.41061 | 3875 ft | 155 kts | 270° |
| 2026-04-26 16:17 | 36.25035 | -92.42371 | 3663 ft | 155 kts | 271° |
| 2026-04-26 16:17 | 36.25175 | -92.43706 | 3435 ft | 157 kts | 271° |
| 2026-04-26 16:17 | 36.25302 | -92.45072 | 3181 ft | 158 kts | 270° |
| 2026-04-26 16:18 | 36.25424 | -92.46410 | 2904 ft | 158 kts | 273° |
| 2026-04-26 16:18 | 36.26341 | -92.48906 | 2394 ft | 160 kts | 307° |
| 2026-04-26 16:19 | 36.28168 | -92.50448 | 1944 ft | 159 kts | 337° |
| 2026-04-26 16:19 | 36.29191 | -92.50915 | 1902 ft | 157 kts | 339° |
| 2026-04-26 16:19 | 36.30850 | -92.51823 | 1829 ft | 156 kts | 337° |
| 2026-04-26 16:20 | 36.32222 | -92.52466 | 1681 ft | 158 kts | 354° |
| 2026-04-26 16:20 | 36.33579 | -92.51007 | 1571 ft | 127 kts | 82° |
| 2026-04-26 16:20 | 36.33773 | -92.50014 | 1495 ft | 110 kts | 77° |
| 2026-04-26 16:21 | 36.34267 | -92.49326 | 1366 ft | 112 kts | 30° |
| 2026-04-26 16:21 | 36.35039 | -92.49238 | 1275 ft | 113 kts | 347° |
| 2026-04-26 16:21 | 36.35623 | -92.49793 | 1248 ft | 107 kts | 293° |
| 2026-04-26 16:21 | 36.35768 | -92.50646 | 1234 ft | 97 kts | 260° |
| 2026-04-26 16:22 | 36.35654 | -92.51399 | 1150 ft | 82 kts | 238° |
| 2026-04-26 16:22 | 36.35557 | -92.52102 | 1054 ft | 85 kts | 253° |
| 2026-04-26 16:22 | 36.35459 | -92.52826 | 978 ft | 87 kts | 252° |
| 2026-04-26 16:22 | 36.35380 | -92.53547 | 833 ft | 78 kts | 250° |
| 2026-04-26 16:23 | 36.35280 | -92.54224 | 718 ft | 80 kts | 250° |
| 2026-04-26 16:23 | 36.35124 | -92.54866 | 582 ft | 76 kts | 242° |
| 2026-04-26 16:23 | 36.34943 | -92.55454 | 478 ft | 66 kts | 242° |
| 2026-04-26 16:23 | 36.34811 | -92.55858 | 478 ft | 35 kts | 250° |
| 2026-04-26 16:24 | 36.34805 | -92.56014 | 478 ft | 9 kts | 308° |
| 2026-04-26 16:24 | 36.34827 | -92.56064 | 473 ft | 5 kts | 296° |
| 2026-04-26 16:24 | 36.34818 | -92.56071 | 479 ft | 0 kts | 130° |